createdAt,value
2024-04-16T08:29:06.874Z,30.3
2024-04-16T08:34:00.780Z,30.2
2024-04-16T08:38:57.866Z,30.4
2024-04-16T08:43:55.392Z,30.7
2024-04-16T08:48:52.306Z,30.2
2024-04-16T08:53:49.118Z,28.6
2024-04-16T08:58:45.622Z,28.4
2024-04-16T09:03:42.288Z,28
2024-04-16T09:08:39.560Z,27.6
2024-04-16T09:13:36.835Z,28.1
2024-04-16T09:18:34.075Z,27.9
2024-04-16T09:23:30.847Z,27.6
2024-04-16T09:28:28.237Z,27.8
2024-04-16T09:33:33.143Z,28.8
2024-04-16T09:38:23.968Z,29.1
2024-04-16T09:43:21.295Z,29.4
2024-04-16T09:48:17.916Z,28.4
2024-04-16T09:53:15.711Z,28.3
2024-04-16T09:58:12.345Z,28.6
2024-04-16T10:03:09.486Z,28.8
2024-04-16T10:08:08.305Z,31.3
2024-04-16T10:13:11.976Z,36.4
2024-04-16T10:18:10.806Z,37.1
2024-04-16T10:23:10.142Z,39.4
2024-04-16T10:28:08.581Z,41.2
2024-04-16T10:33:05.091Z,39.1
2024-04-16T10:38:01.052Z,38.2
2024-04-16T10:42:59.496Z,41.2
2024-04-16T10:47:56.368Z,40.6
2024-04-16T10:52:52.010Z,37.2
2024-04-16T10:57:48.766Z,38
2024-04-16T11:02:46.022Z,36.2
2024-04-16T11:07:45.138Z,38.9
2024-04-16T11:12:42.458Z,37.3
2024-04-16T11:17:40.495Z,39.3
2024-04-16T11:22:37.413Z,38.8
2024-04-16T11:27:34.344Z,36.8
2024-04-16T11:32:30.726Z,36
2024-04-16T11:37:26.788Z,35.7
2024-04-16T11:42:23.880Z,35.8
2024-04-16T11:47:20.954Z,35.1
2024-04-16T11:52:17.575Z,34.8
2024-04-16T11:57:13.992Z,34.3
2024-04-16T12:02:13.173Z,35
2024-04-16T12:07:10.039Z,37.2
2024-04-16T12:12:07.245Z,36.7
2024-04-16T12:17:03.227Z,35
2024-04-16T12:22:00.109Z,35.5
2024-04-16T12:26:59.938Z,39.2
2024-04-16T12:31:56.918Z,37.7
2024-04-16T12:36:52.454Z,35.5
2024-04-16T12:41:47.045Z,32.7
2024-04-16T12:46:43.856Z,33
2024-04-16T12:51:40.567Z,31.9
2024-04-16T12:56:36.771Z,31.2
2024-04-16T13:01:32.880Z,30.1
2024-04-16T13:06:29.320Z,29.5
2024-04-16T13:11:26.338Z,29.4
2024-04-16T13:16:23.270Z,28.8
2024-04-16T13:21:20.387Z,29.1
2024-04-16T13:26:16.925Z,28.6
2024-04-16T13:31:13.258Z,27.2
2024-04-16T13:36:09.284Z,26.1
2024-04-16T13:41:05.830Z,25.2
2024-04-16T13:46:02.795Z,24.9
2024-04-16T13:51:01.054Z,24.3
2024-04-16T13:55:56.331Z,24.3
2024-04-16T14:00:53.306Z,24
2024-04-16T14:05:50.543Z,24
2024-04-16T14:10:47.358Z,23.6
2024-04-16T14:15:43.958Z,23.2
2024-04-16T14:20:40.907Z,22.8
2024-04-16T14:25:37.917Z,22.6
2024-04-16T14:30:35.162Z,22.4
2024-04-16T14:35:32.360Z,22.6
2024-04-16T14:40:29.882Z,22.6
2024-04-16T14:45:26.875Z,22.7
2024-04-16T14:50:24.152Z,22.8
2024-04-16T14:55:21.672Z,23
2024-04-16T15:00:19.114Z,23.1
2024-04-16T15:05:16.676Z,23.4
2024-04-16T15:10:13.373Z,23.1
2024-04-16T15:15:10.213Z,23.1
2024-04-16T15:20:08.072Z,23.7
2024-04-16T15:25:05.075Z,23.6
2024-04-16T15:30:02.451Z,23.7
2024-04-16T15:34:59.393Z,23.2
2024-04-16T15:39:56.444Z,23.4
2024-04-16T15:44:53.312Z,22.9
2024-04-16T15:49:50.207Z,22.3
2024-04-16T15:54:46.735Z,21.9
2024-04-16T15:59:43.865Z,21.5
2024-04-16T16:04:40.676Z,20.9
2024-04-16T16:09:37.379Z,20.7
2024-04-16T16:14:34.191Z,20.3
2024-04-16T16:19:31.190Z,20.1
2024-04-16T16:24:28.080Z,19.9
2024-04-16T16:29:24.895Z,19.6
2024-04-16T16:34:21.785Z,19.4
2024-04-16T16:39:18.686Z,19.1
2024-04-16T16:44:15.491Z,18.8
2024-04-16T16:49:12.509Z,18.6
2024-04-16T16:54:09.478Z,18.2
2024-04-16T16:59:06.171Z,18.1
2024-04-16T17:04:03.382Z,18
2024-04-16T17:09:00.445Z,18
2024-04-16T17:13:57.612Z,17.7
2024-04-16T17:18:54.625Z,17.6
2024-04-16T17:23:51.516Z,17.3
2024-04-16T17:28:48.500Z,17.2
2024-04-16T17:33:45.584Z,17
2024-04-16T17:38:42.868Z,16.8
2024-04-16T17:43:40.164Z,16.7
2024-04-16T17:48:34.299Z,16.9
2024-04-16T17:53:31.476Z,16.9
2024-04-16T17:58:28.648Z,16.9
2024-04-16T18:03:25.602Z,16.7
2024-04-16T18:08:22.527Z,16.6
2024-04-16T18:13:19.706Z,16.5
2024-04-16T18:18:16.851Z,16.3
2024-04-16T18:23:14.663Z,16.6
2024-04-16T18:28:11.175Z,16.8
2024-04-16T18:33:08.584Z,16.9
2024-04-16T18:38:05.522Z,16.7
2024-04-16T18:43:02.742Z,16.7
2024-04-16T18:47:59.819Z,16.6
2024-04-16T18:52:57.011Z,16.5
2024-04-16T18:57:53.965Z,16.5
2024-04-16T19:02:51.003Z,16.5
2024-04-16T19:07:48.001Z,16.3
2024-04-16T19:12:45.227Z,16.1
2024-04-16T19:17:42.216Z,15.9
2024-04-16T19:22:39.474Z,15.8
2024-04-16T19:27:36.417Z,15.5
2024-04-16T19:32:33.093Z,15.1
2024-04-16T19:37:29.904Z,14.8
2024-04-16T19:42:27.175Z,14.6
2024-04-16T19:47:24.089Z,14.4
2024-04-16T19:52:21.188Z,14.3
2024-04-16T19:57:18.035Z,14.3
2024-04-16T20:02:15.488Z,14.4
2024-04-16T20:07:12.835Z,14.5
2024-04-16T20:12:08.386Z,14.6
2024-04-16T20:17:05.575Z,14.6
2024-04-16T20:22:02.674Z,14.5
2024-04-16T20:26:59.861Z,14.5
2024-04-16T20:31:57.182Z,14.5
2024-04-16T20:36:54.626Z,14.6
2024-04-16T20:41:51.875Z,14.7
2024-04-16T20:46:49.065Z,14.6
2024-04-16T20:51:46.284Z,14.5
2024-04-16T20:56:43.272Z,14.4
2024-04-16T21:01:40.790Z,14.2
2024-04-16T21:06:37.999Z,14.2
2024-04-16T21:11:35.035Z,14.3
2024-04-16T21:16:32.406Z,14.3
2024-04-16T21:21:29.527Z,14.4
2024-04-16T21:26:26.893Z,14.4
2024-04-16T21:31:24.173Z,14.5
2024-04-16T21:36:21.500Z,14.5
2024-04-16T21:41:18.737Z,14.3
2024-04-16T21:46:15.678Z,14.1
2024-04-16T21:51:12.716Z,14.1
2024-04-16T21:56:21.658Z,14.1
2024-04-16T22:01:16.442Z,14.3
2024-04-16T22:06:13.643Z,14.3
2024-04-16T22:11:10.765Z,14.3
2024-04-16T22:16:07.924Z,14.2
2024-04-16T22:21:05.103Z,14.1
2024-04-16T22:26:06.121Z,14.1
2024-04-16T22:31:02.302Z,14.1
2024-04-16T22:35:59.337Z,14.1
2024-04-16T22:40:56.405Z,14.1
2024-04-16T22:45:53.547Z,14.1
2024-04-16T22:50:50.894Z,14.1
2024-04-16T22:55:48.132Z,13.9
2024-04-16T23:00:45.207Z,13.6
2024-04-16T23:05:42.529Z,13.5
2024-04-16T23:10:39.538Z,13.4
2024-04-16T23:15:36.777Z,13.4
2024-04-16T23:20:34.123Z,13.4
2024-04-16T23:25:31.439Z,13.3
2024-04-16T23:30:28.468Z,13.2
2024-04-16T23:35:25.442Z,13.1
2024-04-16T23:40:22.399Z,12.7
2024-04-16T23:45:19.380Z,12.7
2024-04-16T23:50:18.027Z,12.9
2024-04-16T23:55:14.929Z,12.9
